Archerfield, Queensland

6:43 PM AEST on August 28, 2016 (GMT +1000)
Darra Observations | | Change Station

Elev 89 ft 27.56 °S, 152.96 °E | Updated 11 seconds ago

Clear
Clear
62.4 °F
Feels Like 62.4 °F
N
1.3
Wind Variable Wind from NE
Gusts 3.1 mph

Today
High -- | Low -- °F
--% Chance of Precip.
Yesterday
High -- | Low -- °F
Precip. -- in
Pressure 30.18 in
Visibility -9999.0 miles
Clouds
Dew Point 52 °F
Humidity 69%
Rainfall 0.00 in
Snow Depth Not available.
6:05 AM 5:32 PM
Waning Crescent, 17% visible
METAR YBBN 280830Z 05005KT CAVOK 18/12 Q1022 NOSIG
Pressure 30.18 in
Visibility -9999.0 miles
Clouds
Dew Point 52 °F
Humidity 69%
Rainfall 0.00 in
Snow Depth Not available.
6:05 AM 5:32 PM
Waning Crescent, 17% visible
METAR YBBN 280830Z 05005KT CAVOK 18/12 Q1022 NOSIG

10-Day Weather Forecast

Almanac

Astronomy

Aug. 28, 2016 Rise Set
Actual Time
Civil Twilight
Nautical Twilight
Astronomical Twilight
Moon
Length of Visible Light
Length of Day
Tomorrow will be .
, % of the Moon is Illuminated

Today's Extremes

Country Highs Country Lows

Community

WunderPhotos

Upload Photos

1,935,540 photos uploaded!

WunderBlog® & News

Nearby

Air Quality

  Air Quality AQ Index Pollutant
Not available.

Snow Depth

Station Depth Elevation

Earthquake Activity

City Distance Mag. Time & Date
Minimum magnitude displayed is 2.5.

Coastal Water Temperatures

Place Temperature

Stations

Nearby Weather Stations

Station Location Temp. Windchill Dew Point Humidity Wind Precip. Elev Updated Type